createdAt,value
2022-12-19T00:00:35.119Z,-1.40
2022-12-19T00:03:03.220Z,-1.32
2022-12-19T00:05:31.314Z,-1.07
2022-12-19T00:07:59.167Z,-1.22
2022-12-19T00:10:34.355Z,-1.19
2022-12-19T00:13:02.323Z,-1.30
2022-12-19T00:15:30.126Z,-1.13
2022-12-19T00:17:57.945Z,-1.44
2022-12-19T00:20:25.843Z,-1.14
2022-12-19T00:22:53.672Z,-1.23
2022-12-19T00:25:23.021Z,-1.10
2022-12-19T00:27:52.772Z,-0.87
2022-12-19T00:30:20.770Z,-0.80
2022-12-19T00:32:48.717Z,-1.12
2022-12-19T00:35:16.776Z,-1.22
2022-12-19T00:37:49.619Z,-1.11
2022-12-19T00:40:18.440Z,-1.08
2022-12-19T00:42:51.746Z,-0.93
2022-12-19T00:45:23.001Z,-0.89
2022-12-19T00:47:50.935Z,-0.64
2022-12-19T00:50:18.833Z,-1.24
2022-12-19T00:52:46.635Z,-1.09
2022-12-19T00:55:18.834Z,-0.73
2022-12-19T00:57:47.234Z,-0.71
2022-12-19T01:00:16.631Z,-0.95
2022-12-19T01:02:46.413Z,-0.90
2022-12-19T01:05:14.370Z,-1.18
2022-12-19T01:07:42.387Z,-0.92
2022-12-19T01:10:11.066Z,-1.13
2022-12-19T01:12:46.665Z,-1.46
2022-12-19T01:15:16.692Z,-1.04
2022-12-19T01:17:46.234Z,-1.13
2022-12-19T01:20:15.538Z,-0.84
2022-12-19T01:22:43.523Z,-0.99
2022-12-19T01:25:14.569Z,-0.79
2022-12-19T01:27:42.398Z,-1.05
2022-12-19T01:30:11.788Z,-0.73
2022-12-19T01:32:40.198Z,-0.44
2022-12-19T01:35:21.349Z,-0.44
2022-12-19T01:37:50.559Z,-0.32
2022-12-19T01:40:18.369Z,-1.12
2022-12-19T01:42:46.188Z,-0.77
2022-12-19T01:45:34.036Z,-0.97
2022-12-19T01:48:15.370Z,-0.54
2022-12-19T01:51:01.031Z,-0.69
2022-12-19T01:53:36.208Z,-1.15
2022-12-19T01:56:11.640Z,-0.88
2022-12-19T01:58:42.713Z,-0.70
2022-12-19T02:01:10.665Z,-0.69
2022-12-19T02:03:40.601Z,-0.78
2022-12-19T02:06:14.635Z,-0.63
2022-12-19T02:08:43.069Z,-0.56
2022-12-19T02:11:11.113Z,-1.01
2022-12-19T02:13:40.754Z,-0.59
2022-12-19T02:16:24.757Z,-0.75
2022-12-19T02:19:11.797Z,-0.33
2022-12-19T02:21:54.723Z,-0.48
2022-12-19T02:25:00.860Z,-0.56
2022-12-19T02:28:10.926Z,-0.60
2022-12-19T02:30:53.787Z,-0.34
2022-12-19T02:33:32.478Z,-0.52
2022-12-19T02:36:09.118Z,-0.35
2022-12-19T02:38:43.335Z,-0.78
2022-12-19T02:41:16.755Z,-0.39
2022-12-19T02:43:57.272Z,-0.57
2022-12-19T02:46:30.986Z,-0.61
2022-12-19T02:48:59.454Z,-0.45
2022-12-19T02:51:27.633Z,-0.30
2022-12-19T02:53:55.581Z,-0.78
2022-12-19T02:56:35.451Z,-0.63
2022-12-19T02:59:21.633Z,-0.34
2022-12-19T03:01:56.382Z,-0.56
2022-12-19T03:04:36.302Z,-0.52
2022-12-19T03:07:14.278Z,-0.15
2022-12-19T03:09:51.908Z,-0.07
2022-12-19T03:12:27.577Z,-0.32
2022-12-19T03:14:57.613Z,-0.91
2022-12-19T03:17:29.832Z,-0.42
2022-12-19T03:19:58.375Z,-0.33
2022-12-19T03:22:26.295Z,-0.39
2022-12-19T03:24:54.173Z,-0.22
2022-12-19T03:27:27.529Z,-0.06
2022-12-19T03:30:00.926Z,-0.47
2022-12-19T03:32:31.825Z,-0.05
2022-12-19T03:35:04.112Z,-0.54
2022-12-19T03:37:35.423Z,-0.04
2022-12-19T03:40:07.539Z,-0.19
2022-12-19T03:42:56.652Z,-0.26
2022-12-19T03:45:33.037Z,-0.60
2022-12-19T03:48:08.866Z,-0.18
2022-12-19T03:50:47.777Z,-0.19
2022-12-19T03:53:27.374Z,-0.37
2022-12-19T03:56:03.027Z,-0.21
2022-12-19T03:58:34.824Z,-0.49
2022-12-19T04:01:05.869Z,-0.14
2022-12-19T04:03:35.395Z,-0.14
2022-12-19T04:06:05.617Z,-0.87
2022-12-19T04:08:34.931Z,-0.29
2022-12-19T04:11:07.983Z,-0.36
2022-12-19T04:13:39.815Z,-0.25
2022-12-19T04:16:14.600Z,-0.62
2022-12-19T04:18:48.794Z,-0.68
2022-12-19T04:21:21.285Z,-0.62
2022-12-19T04:23:53.904Z,-0.62
2022-12-19T04:26:23.124Z,-0.69
2022-12-19T04:28:54.198Z,-0.46
2022-12-19T04:31:23.301Z,-0.25
2022-12-19T04:33:52.667Z,-0.62
2022-12-19T04:36:20.584Z,-0.28
2022-12-19T04:38:48.512Z,-0.67
2022-12-19T04:41:16.401Z,-0.26
2022-12-19T04:43:44.371Z,-0.35
2022-12-19T04:46:12.308Z,-0.40
2022-12-19T04:48:40.250Z,-0.70
2022-12-19T04:51:09.704Z,-0.19
2022-12-19T04:53:37.662Z,-0.03
2022-12-19T04:56:07.147Z,-0.29
2022-12-19T04:58:35.144Z,-0.71
2022-12-19T05:01:03.362Z,-0.47
2022-12-19T05:03:31.290Z,-0.37
2022-12-19T05:06:07.552Z,-0.70
2022-12-19T05:08:38.363Z,-0.35
2022-12-19T05:11:07.636Z,-0.55
2022-12-19T05:13:35.856Z,-0.35
2022-12-19T05:16:06.005Z,-0.56
2022-12-19T05:18:34.055Z,-0.72
2022-12-19T05:21:02.299Z,-0.49
2022-12-19T05:23:30.317Z,-0.55
2022-12-19T05:26:00.713Z,-0.30
2022-12-19T05:28:29.041Z,-0.34
2022-12-19T05:31:04.922Z,-0.25
2022-12-19T05:33:32.850Z,-0.58
2022-12-19T05:36:00.785Z,-0.62
2022-12-19T05:38:29.282Z,-0.83
2022-12-19T05:40:57.241Z,-0.28
2022-12-19T05:43:26.665Z,-0.25
2022-12-19T05:45:54.615Z,-0.02
2022-12-19T05:48:22.596Z,-0.03
2022-12-19T05:50:51.010Z,0.10
2022-12-19T05:53:24.561Z,-0.11
2022-12-19T05:55:54.114Z,-0.40
2022-12-19T05:58:22.047Z,-0.47
2022-12-19T06:00:51.297Z,-0.11
2022-12-19T06:03:19.276Z,0.40
2022-12-19T06:05:47.352Z,0.18
2022-12-19T06:08:15.228Z,-0.03
2022-12-19T06:10:43.107Z,0.04
2022-12-19T06:13:11.011Z,-0.24
2022-12-19T06:15:38.911Z,-0.23
2022-12-19T06:18:09.001Z,-0.21
2022-12-19T06:20:37.381Z,-0.32
2022-12-19T06:23:05.520Z,-0.04
2022-12-19T06:25:33.493Z,-0.32
2022-12-19T06:28:01.366Z,0.00
2022-12-19T06:30:29.625Z,-0.54
2022-12-19T06:32:57.493Z,-0.60
2022-12-19T06:35:26.753Z,-0.33
2022-12-19T06:37:59.399Z,-0.20
2022-12-19T06:40:46.343Z,-0.07
2022-12-19T06:43:14.205Z,0.09
2022-12-19T06:45:42.083Z,0.42
2022-12-19T06:48:10.037Z,0.14
2022-12-19T06:50:39.258Z,0.58
2022-12-19T06:53:07.119Z,0.47
2022-12-19T06:55:37.220Z,0.54
2022-12-19T06:58:05.277Z,0.30
2022-12-19T07:00:38.034Z,0.41
2022-12-19T07:03:09.331Z,0.58
2022-12-19T07:05:37.515Z,0.69
2022-12-19T07:08:06.984Z,0.56
2022-12-19T07:10:34.870Z,0.41
2022-12-19T07:13:02.939Z,0.40
2022-12-19T07:15:33.031Z,0.64
2022-12-19T07:18:01.471Z,0.80
2022-12-19T07:20:31.445Z,1.00
2022-12-19T07:22:59.401Z,0.61
2022-12-19T07:25:28.663Z,0.46
2022-12-19T07:27:56.743Z,0.68
2022-12-19T07:30:24.595Z,0.43
2022-12-19T07:32:53.105Z,1.02
2022-12-19T07:35:24.423Z,1.03
2022-12-19T07:37:52.391Z,0.51
2022-12-19T07:40:20.321Z,1.20
2022-12-19T07:42:49.610Z,0.73
2022-12-19T07:45:17.675Z,0.78
2022-12-19T07:47:48.412Z,1.02
2022-12-19T07:50:16.343Z,1.06
2022-12-19T07:52:44.786Z,1.24
2022-12-19T07:55:13.521Z,0.78
2022-12-19T07:57:41.448Z,1.30
2022-12-19T08:00:12.332Z,1.17
2022-12-19T08:02:40.511Z,1.38
2022-12-19T08:05:08.866Z,0.92
2022-12-19T08:07:36.829Z,1.50
2022-12-19T08:10:06.811Z,1.25
2022-12-19T08:12:36.029Z,1.34
2022-12-19T08:15:05.817Z,1.55
2022-12-19T08:17:38.609Z,1.78
2022-12-19T08:20:08.252Z,1.43
2022-12-19T08:22:36.460Z,1.62
2022-12-19T08:25:04.594Z,1.39
2022-12-19T08:27:32.436Z,1.47
2022-12-19T08:30:00.318Z,1.87
2022-12-19T08:32:29.642Z,1.51
2022-12-19T08:34:58.895Z,2.00
2022-12-19T08:37:26.763Z,1.93
2022-12-19T08:39:54.830Z,2.02
2022-12-19T08:42:22.676Z,2.03
2022-12-19T08:44:50.522Z,1.78
2022-12-19T08:47:18.470Z,2.31
2022-12-19T08:49:46.316Z,2.11
2022-12-19T08:52:15.542Z,2.23
2022-12-19T08:54:45.452Z,1.65
2022-12-19T08:57:13.347Z,2.04
2022-12-19T08:59:41.204Z,2.17
2022-12-19T09:02:11.071Z,2.24
2022-12-19T09:05:59.415Z,1.95
2022-12-19T09:07:29.189Z,2.27
2022-12-19T09:09:57.108Z,2.15
2022-12-19T09:12:25.095Z,2.53
2022-12-19T09:14:52.981Z,1.90
2022-12-19T09:17:20.931Z,2.30
2022-12-19T09:19:48.861Z,2.45
2022-12-19T09:22:17.618Z,2.41
2022-12-19T09:24:47.139Z,2.58
2022-12-19T09:27:15.091Z,2.50
2022-12-19T09:29:43.672Z,2.73
2022-12-19T09:32:11.523Z,2.76
2022-12-19T09:34:39.754Z,3.08
2022-12-19T09:37:16.462Z,2.77
2022-12-19T09:39:47.493Z,2.77
2022-12-19T09:42:26.420Z,2.75
2022-12-19T09:45:09.630Z,2.88
2022-12-19T09:47:45.025Z,2.99
2022-12-19T09:50:27.111Z,3.08
2022-12-19T09:53:00.601Z,3.22
2022-12-19T09:55:35.938Z,3.33
2022-12-19T09:58:09.249Z,3.26
2022-12-19T10:00:42.940Z,3.34
2022-12-19T10:03:21.827Z,3.42
2022-12-19T10:06:34.795Z,3.43
2022-12-19T10:09:04.873Z,3.33
2022-12-19T10:12:46.214Z,3.15
2022-12-19T10:14:52.327Z,3.59
2022-12-19T10:17:29.892Z,3.65
2022-12-19T10:20:19.253Z,3.69
2022-12-19T10:22:57.283Z,3.82
2022-12-19T10:25:42.778Z,3.89
2022-12-19T10:28:21.798Z,4.01
2022-12-19T10:31:01.499Z,3.84
2022-12-19T10:33:42.276Z,4.13
2022-12-19T10:36:12.039Z,3.48
2022-12-19T10:38:46.311Z,3.96
2022-12-19T10:41:23.542Z,4.08
2022-12-19T10:44:02.364Z,4.28
2022-12-19T10:46:39.446Z,4.19
2022-12-19T10:49:17.050Z,4.32
2022-12-19T10:51:54.911Z,4.27
2022-12-19T10:54:27.543Z,4.66
2022-12-19T10:57:19.228Z,4.42
2022-12-19T10:59:58.101Z,3.99
2022-12-19T11:02:36.950Z,4.23
2022-12-19T11:05:20.753Z,4.61
2022-12-19T11:08:01.590Z,4.09
2022-12-19T11:11:54.967Z,4.44
2022-12-19T11:16:05.481Z,4.43
2022-12-19T11:18:09.910Z,4.37
2022-12-19T11:29:32.466Z,4.25
2022-12-19T11:29:38.395Z,4.43
2022-12-19T11:30:09.729Z,4.44
2022-12-19T11:30:42.809Z,4.62
2022-12-19T11:33:57.145Z,4.53
2022-12-19T11:36:31.661Z,4.32
2022-12-19T11:39:01.003Z,4.46
2022-12-19T11:41:34.714Z,3.99
2022-12-19T11:44:09.834Z,4.22
2022-12-19T11:46:45.653Z,4.58
2022-12-19T11:49:24.435Z,4.04
2022-12-19T11:52:29.448Z,4.38
2022-12-19T11:55:04.510Z,4.36
2022-12-19T11:57:33.043Z,4.29
2022-12-19T12:00:05.071Z,4.63
2022-12-19T12:03:03.040Z,4.67
2022-12-19T12:05:45.721Z,4.71
2022-12-19T12:10:05.252Z,4.44
2022-12-19T12:16:05.446Z,4.61
2022-12-19T12:27:58.056Z,4.55
2022-12-19T12:30:10.099Z,4.17
2022-12-19T12:31:16.502Z,4.44
2022-12-19T12:31:21.386Z,4.53
2022-12-19T12:31:51.388Z,4.75
2022-12-19T12:32:05.580Z,4.44
2022-12-19T12:35:51.083Z,4.53
2022-12-19T12:38:37.373Z,4.45
2022-12-19T12:41:20.389Z,4.79
2022-12-19T12:44:06.012Z,4.72
2022-12-19T12:46:38.485Z,4.63
2022-12-19T12:49:24.907Z,4.42
2022-12-19T12:51:53.401Z,4.47
2022-12-19T12:54:26.923Z,4.51
2022-12-19T12:56:56.003Z,4.44
2022-12-19T12:59:25.764Z,4.54
2022-12-19T13:01:55.647Z,4.65
2022-12-19T13:04:34.105Z,4.93
2022-12-19T13:07:15.395Z,4.81
2022-12-19T13:09:45.156Z,4.76
2022-12-19T13:12:39.465Z,4.73
2022-12-19T13:15:32.574Z,4.57
2022-12-19T13:18:31.217Z,4.45
2022-12-19T13:21:00.990Z,4.53
2022-12-19T13:23:44.991Z,4.73
2022-12-19T13:26:49.374Z,4.71
2022-12-19T13:29:58.082Z,4.46
2022-12-19T13:32:26.993Z,4.63
2022-12-19T13:35:02.447Z,4.60
2022-12-19T13:39:50.481Z,4.63
2022-12-19T13:40:51.634Z,4.61
2022-12-19T13:43:40.383Z,4.59
2022-12-19T13:46:40.212Z,4.69
2022-12-19T13:49:14.436Z,4.61
2022-12-19T13:51:55.814Z,4.66
2022-12-19T13:54:28.417Z,4.63
2022-12-19T13:57:01.045Z,4.65
2022-12-19T13:59:40.250Z,4.48
2022-12-19T14:02:18.903Z,4.70
2022-12-19T14:04:47.131Z,4.87
2022-12-19T14:07:36.210Z,4.57
2022-12-19T14:11:41.014Z,4.81
2022-12-19T14:13:54.077Z,4.81
2022-12-19T14:16:05.065Z,4.52
2022-12-19T14:18:43.064Z,4.76
2022-12-19T14:22:07.898Z,4.85
2022-12-19T14:24:11.767Z,4.86
2022-12-19T14:28:18.955Z,4.81
2022-12-19T14:30:26.130Z,5.01
2022-12-19T14:33:40.659Z,5.13
2022-12-19T14:36:08.840Z,5.07
2022-12-19T14:39:19.485Z,5.19
2022-12-19T14:41:08.049Z,4.99
2022-12-19T14:43:57.550Z,5.30
2022-12-19T14:53:34.253Z,5.27
2022-12-19T14:54:13.169Z,5.27
2022-12-19T14:54:31.209Z,5.29
2022-12-19T14:56:08.549Z,5.30
2022-12-19T14:58:53.233Z,5.11
2022-12-19T15:01:24.231Z,5.33
2022-12-19T15:04:50.501Z,5.43
2022-12-19T15:07:09.586Z,5.10
2022-12-19T15:11:00.399Z,5.03
2022-12-19T15:14:48.758Z,4.81
2022-12-19T15:15:45.890Z,5.20
2022-12-19T15:18:40.060Z,5.62
2022-12-19T15:21:11.103Z,5.36
2022-12-19T15:23:39.776Z,5.50
2022-12-19T15:26:15.147Z,5.69
2022-12-19T15:28:45.216Z,5.36
2022-12-19T15:31:29.722Z,5.44
2022-12-19T15:36:45.988Z,5.69
2022-12-19T15:39:15.061Z,5.70
2022-12-19T15:41:46.627Z,5.89
2022-12-19T15:44:19.634Z,5.78
2022-12-19T15:46:49.319Z,5.38
2022-12-19T15:49:18.906Z,5.54
2022-12-19T15:51:47.492Z,5.88
2022-12-19T15:54:47.254Z,5.69
2022-12-19T15:57:05.318Z,5.76
2022-12-19T15:59:38.422Z,5.47
2022-12-19T16:02:17.570Z,5.57
2022-12-19T16:04:47.334Z,5.86
2022-12-19T16:07:20.051Z,5.71
2022-12-19T16:09:47.968Z,5.97
2022-12-19T16:12:20.245Z,6.10
2022-12-19T16:14:50.222Z,5.62
2022-12-19T16:17:21.221Z,5.84
2022-12-19T16:19:49.838Z,6.04
2022-12-19T16:22:20.497Z,5.89
2022-12-19T16:24:48.431Z,5.82
2022-12-19T16:27:24.761Z,5.89
2022-12-19T16:29:54.016Z,5.76
2022-12-19T16:32:24.501Z,6.02
2022-12-19T16:34:54.390Z,5.87
2022-12-19T16:37:27.189Z,5.94
2022-12-19T16:39:56.598Z,6.14
2022-12-19T16:42:25.838Z,6.16
2022-12-19T16:44:54.263Z,6.06
2022-12-19T16:47:22.311Z,6.37
2022-12-19T16:49:50.265Z,6.21
2022-12-19T16:52:18.155Z,6.32
2022-12-19T16:54:46.020Z,6.33
2022-12-19T16:57:20.134Z,6.18
2022-12-19T16:59:49.894Z,6.19
2022-12-19T17:02:41.641Z,6.19
2022-12-19T17:05:16.722Z,6.26
2022-12-19T17:07:44.746Z,6.14
2022-12-19T17:10:12.805Z,6.23
2022-12-19T17:12:42.812Z,6.35
2022-12-19T17:15:24.160Z,6.56
2022-12-19T17:17:54.212Z,6.23
2022-12-19T17:20:24.411Z,6.25
2022-12-19T17:22:52.461Z,6.32
2022-12-19T17:25:23.295Z,6.14
2022-12-19T17:27:52.292Z,6.48
2022-12-19T17:30:22.795Z,6.56
2022-12-19T17:32:53.071Z,6.33
2022-12-19T17:35:27.729Z,6.43
2022-12-19T17:37:57.849Z,6.69
2022-12-19T17:40:27.446Z,6.53
2022-12-19T17:42:56.171Z,6.49
2022-12-19T17:45:26.119Z,6.60
2022-12-19T17:48:02.091Z,6.61
2022-12-19T17:50:35.331Z,6.48
2022-12-19T17:53:03.223Z,6.72
2022-12-19T17:55:31.848Z,6.60
2022-12-19T17:57:59.979Z,6.53
2022-12-19T18:00:32.350Z,6.76
2022-12-19T18:03:04.901Z,6.38
2022-12-19T18:05:35.833Z,6.78
2022-12-19T18:08:04.916Z,6.69
2022-12-19T18:10:33.467Z,6.85
2022-12-19T18:13:01.460Z,6.70
2022-12-19T18:15:31.086Z,6.58
2022-12-19T18:18:00.009Z,6.32
2022-12-19T18:20:32.111Z,6.79
2022-12-19T18:23:01.693Z,6.68
2022-12-19T18:25:32.012Z,6.62
2022-12-19T18:27:59.977Z,6.77
2022-12-19T18:30:27.904Z,6.78
2022-12-19T18:32:59.790Z,7.05
2022-12-19T18:35:32.593Z,6.67
2022-12-19T18:38:02.713Z,7.01
2022-12-19T18:40:31.921Z,7.13
2022-12-19T18:43:00.294Z,6.92
2022-12-19T18:45:33.333Z,6.85
2022-12-19T18:48:05.208Z,6.91
2022-12-19T18:50:33.184Z,6.84
2022-12-19T18:53:02.045Z,6.84
2022-12-19T18:55:32.573Z,7.01
2022-12-19T18:58:00.640Z,7.17
2022-12-19T19:00:29.309Z,7.07
2022-12-19T19:03:00.444Z,7.34
2022-12-19T19:05:32.449Z,7.02
2022-12-19T19:08:12.994Z,7.18
2022-12-19T19:10:40.942Z,7.31
2022-12-19T19:13:12.149Z,7.37
2022-12-19T19:15:46.522Z,7.30
2022-12-19T19:18:15.962Z,7.43
2022-12-19T19:20:46.599Z,6.90
2022-12-19T19:23:15.357Z,7.46
2022-12-19T19:25:43.560Z,7.40
2022-12-19T19:28:11.555Z,7.19
2022-12-19T19:30:40.682Z,7.44
2022-12-19T19:33:14.131Z,7.23
2022-12-19T19:35:43.799Z,7.45
2022-12-19T19:38:14.550Z,7.12
2022-12-19T19:40:43.374Z,7.36
2022-12-19T19:43:11.340Z,7.19
2022-12-19T19:45:43.181Z,7.01
2022-12-19T19:48:12.159Z,6.99
2022-12-19T19:50:40.173Z,7.34
2022-12-19T19:53:08.422Z,7.24
2022-12-19T19:55:37.759Z,7.15
2022-12-19T19:58:05.680Z,7.32
2022-12-19T20:00:33.560Z,7.06
2022-12-19T20:03:07.236Z,7.18
2022-12-19T20:05:37.525Z,7.01
2022-12-19T20:08:06.013Z,6.95
2022-12-19T20:10:34.011Z,7.01
2022-12-19T20:13:03.474Z,7.17
2022-12-19T20:15:31.769Z,7.16
2022-12-19T20:18:00.192Z,6.86
2022-12-19T20:20:28.200Z,7.16
2022-12-19T20:22:56.116Z,7.47
2022-12-19T20:25:24.169Z,7.26
2022-12-19T20:27:52.379Z,7.04
2022-12-19T20:30:22.151Z,7.14
2022-12-19T20:32:49.996Z,7.48
2022-12-19T20:35:18.072Z,7.35
2022-12-19T20:37:45.945Z,7.41
2022-12-19T20:40:14.352Z,7.04
2022-12-19T20:42:42.345Z,7.21
2022-12-19T20:45:10.973Z,6.97
2022-12-19T20:47:40.246Z,7.43
2022-12-19T20:50:09.401Z,7.51
2022-12-19T20:52:37.554Z,7.03
2022-12-19T20:55:06.168Z,7.14
2022-12-19T20:57:34.295Z,7.17
2022-12-19T21:00:02.302Z,7.08
2022-12-19T21:02:46.262Z,7.07
2022-12-19T21:05:20.549Z,7.05
2022-12-19T21:07:48.754Z,6.83
2022-12-19T21:10:16.801Z,7.08
2022-12-19T21:12:47.829Z,7.07
2022-12-19T21:15:16.650Z,7.01
2022-12-19T21:17:44.785Z,6.89
2022-12-19T21:20:13.346Z,6.71
2022-12-19T21:22:42.669Z,6.99
2022-12-19T21:25:10.661Z,6.96
2022-12-19T21:27:38.556Z,6.76
2022-12-19T21:30:07.210Z,7.04
2022-12-19T21:32:35.104Z,6.85
2022-12-19T21:35:03.017Z,6.81
2022-12-19T21:41:37.997Z,6.73
2022-12-19T21:44:06.028Z,6.74
2022-12-19T21:46:34.740Z,6.99
2022-12-19T21:49:03.625Z,6.77
2022-12-19T21:51:32.809Z,6.70
2022-12-19T21:54:02.112Z,6.98
2022-12-19T21:56:32.190Z,6.94
2022-12-19T21:59:03.056Z,6.85
2022-12-19T22:01:31.704Z,6.89
2022-12-19T22:04:00.787Z,6.85
2022-12-19T22:06:31.299Z,7.17
2022-12-19T22:09:00.243Z,7.04
2022-12-19T22:11:29.784Z,6.78
2022-12-19T22:14:01.247Z,7.10
2022-12-19T22:16:29.618Z,6.98
2022-12-19T22:18:57.810Z,6.80
2022-12-19T22:21:26.789Z,7.03
2022-12-19T22:23:57.985Z,7.05
2022-12-19T22:26:27.601Z,7.09
2022-12-19T22:28:56.893Z,7.25
2022-12-19T22:31:28.473Z,7.13
2022-12-19T22:33:59.015Z,7.26
2022-12-19T22:36:29.123Z,7.11
2022-12-19T22:38:58.705Z,7.29
2022-12-19T22:41:27.006Z,7.07
2022-12-19T22:43:55.705Z,7.08
2022-12-19T22:46:27.247Z,7.07
2022-12-19T22:48:58.203Z,7.40
2022-12-19T22:51:27.551Z,7.20
2022-12-19T22:53:55.941Z,7.25
2022-12-19T22:56:25.650Z,7.29
2022-12-19T22:58:55.309Z,7.42
2022-12-19T23:01:25.841Z,7.08
2022-12-19T23:03:57.423Z,7.30
2022-12-19T23:06:27.490Z,7.34
2022-12-19T23:08:55.456Z,7.37
2022-12-19T23:11:26.526Z,7.50
2022-12-19T23:13:54.901Z,7.36
2022-12-19T23:16:22.847Z,7.32
2022-12-19T23:18:50.838Z,7.32
2022-12-19T23:21:24.611Z,7.23
2022-12-19T23:23:56.040Z,7.36
2022-12-19T23:26:26.563Z,7.38
2022-12-19T23:28:56.871Z,6.97
2022-12-19T23:31:25.836Z,7.32
2022-12-19T23:33:54.065Z,7.32
2022-12-19T23:37:00.466Z,7.42
2022-12-19T23:39:12.338Z,7.23
2022-12-19T23:41:40.712Z,7.27
2022-12-19T23:44:09.216Z,7.49
2022-12-19T23:46:37.985Z,7.51
2022-12-19T23:49:05.988Z,7.02
2022-12-19T23:51:35.260Z,7.28
2022-12-19T23:54:03.296Z,7.41
2022-12-19T23:56:33.255Z,7.53
2022-12-19T23:59:01.682Z,7.59
